TimeAKDT,TemperatureF,Dew PointF,Humidity,Sea Level PressureIn,VisibilityMPH,Wind Direction,Wind SpeedMPH,Gust SpeedMPH,PrecipitationIn,Events,Conditions,WindDirDegrees,DateUTC
12:53 AM,-11.9,-17.0,78,30.86,10.0,Calm,Calm,-,N/A,,Partly Cloudy,0,2012-10-25 08:53:00
1:53 AM,-11.9,-17.0,78,30.85,10.0,Calm,Calm,-,N/A,,Partly Cloudy,0,2012-10-25 09:53:00
2:53 AM,-13.0,-18.0,78,30.86,10.0,Calm,Calm,-,N/A,,Partly Cloudy,0,2012-10-25 10:53:00
3:53 AM,-13.0,-18.9,75,30.85,10.0,Calm,Calm,-,N/A,,Partly Cloudy,0,2012-10-25 11:53:00
4:53 AM,-14.1,-18.9,79,30.84,10.0,Calm,Calm,-,N/A,,Partly Cloudy,0,2012-10-25 12:53:00
5:53 AM,-14.1,-20.0,75,30.85,10.0,NNE,3.5,-,N/A,,Partly Cloudy,30,2012-10-25 13:53:00
6:53 AM,-15.0,-20.0,78,30.85,10.0,Calm,Calm,-,N/A,,Partly Cloudy,0,2012-10-25 14:53:00
7:53 AM,-15.0,-20.0,78,30.87,10.0,Calm,Calm,-,N/A,,Clear,0,2012-10-25 15:53:00
8:53 AM,-17.0,-20.9,82,30.87,10.0,Calm,Calm,-,N/A,,Clear,0,2012-10-25 16:53:00
9:53 AM,-11.9,-16.1,82,30.87,10.0,Calm,Calm,-,N/A,,Partly Cloudy,0,2012-10-25 17:53:00
10:53 AM,-5.1,-9.9,80,30.84,10.0,Calm,Calm,-,N/A,,Scattered Clouds,0,2012-10-25 18:53:00
11:28 AM,-2.2,-7.6,78,30.60,10.0,East,3.5,-,N/A,,Scattered Clouds,90,2012-10-25 19:28:00
11:53 AM,-0.9,-6.0,79,30.83,10.0,East,4.6,-,N/A,,Scattered Clouds,90,2012-10-25 19:53:00
12:53 PM,1.9,-2.9,80,30.81,10.0,East,3.5,-,N/A,,Clear,80,2012-10-25 20:53:00
1:53 PM,5.0,-0.0,80,30.80,10.0,Calm,Calm,-,N/A,,Clear,0,2012-10-25 21:53:00
2:53 PM,7.0,1.0,77,30.78,10.0,SE,3.5,-,N/A,,Clear,130,2012-10-25 22:53:00
3:53 PM,8.1,1.9,76,30.77,10.0,Calm,Calm,-,N/A,,Clear,0,2012-10-25 23:53:00
4:53 PM,6.1,-0.0,76,30.75,10.0,SSW,3.5,-,N/A,,Clear,200,2012-10-26 00:53:00
5:53 PM,1.0,-2.9,83,30.76,10.0,Calm,Calm,-,N/A,,Clear,0,2012-10-26 01:53:00
6:53 PM,-4.0,-9.0,79,30.76,10.0,Calm,Calm,-,N/A,,Clear,0,2012-10-26 02:53:00
7:53 PM,-8.0,-13.0,79,30.77,10.0,Calm,Calm,-,N/A,,Clear,0,2012-10-26 03:53:00
8:53 PM,-9.0,-14.1,79,30.77,10.0,Calm,Calm,-,N/A,,Clear,0,2012-10-26 04:53:00
9:53 PM,-9.9,-16.1,74,30.75,10.0,Calm,Calm,-,N/A,,Clear,0,2012-10-26 05:53:00
10:53 PM,-11.9,-17.0,78,30.73,10.0,Calm,Calm,-,N/A,,Clear,0,2012-10-26 06:53:00
11:53 PM,-11.9,-18.0,74,30.73,10.0,Calm,Calm,-,N/A,,Partly Cloudy,0,2012-10-26 07:53:00